Time;durP1;ratioP1;P1;durP2;ratioP2;P2;SDS_P1;SDS_P2;PMS_P1;PMS_P2;Temp;Humidity;BMP_temperature;BMP_pressure;BME280_temperature;BME280_humidity;BME280_pressure;Samples;Min_cycle;Max_cycle;Signal;HPM_P1;HPM_P2
2023/04/10 00:00:36;;;;;;;14.40;11.77;;;;;;;7.30;87.30;102010.34;5052137;28;20350;-56
2023/04/10 00:03:02;;;;;;;13.52;11.30;;;;;;;7.26;87.89;102000.69;5052186;28;20095;-56
2023/04/10 00:05:28;;;;;;;15.63;12.15;;;;;;;7.27;87.81;101994.78;5051751;28;20033;-56
2023/04/10 00:07:53;;;;;;;14.95;12.20;;;;;;;7.30;87.45;101991.50;5052308;28;20033;-56
2023/04/10 00:10:18;;;;;;;15.43;12.48;;;;;;;7.27;87.94;101981.03;5052124;28;20021;-56
2023/04/10 00:12:44;;;;;;;14.68;12.00;;;;;;;7.19;87.87;101972.88;5052116;28;20032;-56
2023/04/10 00:15:09;;;;;;;14.90;13.00;;;;;;;7.21;87.44;101979.00;5052145;28;20383;-56
2023/04/10 00:17:36;;;;;;;14.57;11.98;;;;;;;7.20;88.30;101972.97;5052090;28;20136;-56
2023/04/10 00:20:02;;;;;;;17.02;12.25;;;;;;;7.21;87.79;101968.75;5053718;28;20035;-56
2023/04/10 00:22:28;;;;;;;15.55;12.35;;;;;;;7.23;87.49;101967.13;5055834;28;20024;-55
2023/04/10 00:24:53;;;;;;;15.23;11.98;;;;;;;7.28;86.77;101954.63;5056188;28;20071;-56
2023/04/10 00:27:18;;;;;;;14.13;11.73;;;;;;;7.33;86.27;101955.78;5055466;28;20024;-55
2023/04/10 00:29:44;;;;;;;13.55;11.32;;;;;;;7.32;86.60;101951.44;5056085;28;20032;-56
2023/04/10 00:32:09;;;;;;;16.83;11.93;;;;;;;7.35;86.29;101947.38;5056071;28;20033;-55
2023/04/10 00:34:34;;;;;;;14.27;12.00;;;;;;;7.36;86.22;101951.72;5055234;28;20072;-56
2023/04/10 00:37:00;;;;;;;14.07;11.52;;;;;;;7.35;86.00;101943.94;5055737;28;20052;-56
2023/04/10 00:39:25;;;;;;;14.70;11.38;;;;;;;7.38;85.43;101944.13;5055788;28;20387;-56
2023/04/10 00:41:50;;;;;;;16.38;11.93;;;;;;;7.31;85.89;101936.84;5055430;28;20124;-56
2023/04/10 00:44:16;;;;;;;13.18;11.57;;;;;;;7.36;85.47;101932.88;5055552;28;20025;-57
2023/04/10 00:46:42;;;;;;;14.80;12.02;;;;;;;7.27;85.83;101938.34;5056046;28;20032;-55
2023/04/10 00:49:08;;;;;;;14.52;12.07;;;;;;;7.37;85.40;101929.53;5055211;28;20060;-54
2023/04/10 00:51:35;;;;;;;13.52;11.55;;;;;;;7.29;85.64;101930.75;5055207;28;20049;-55
2023/04/10 00:54:01;;;;;;;13.98;11.05;;;;;;;7.28;85.45;101922.16;5055855;28;20017;-56
2023/04/10 00:56:28;;;;;;;14.48;11.50;;;;;;;7.24;85.78;101928.81;5055027;28;20025;-56
2023/04/10 00:58:54;;;;;;;14.38;11.93;;;;;;;7.23;85.59;101931.25;5055280;28;20407;-55
2023/04/10 01:01:19;;;;;;;14.15;11.30;;;;;;;7.22;85.26;101929.50;5055234;28;20020;-56
2023/04/10 01:03:44;;;;;;;14.77;11.90;;;;;;;7.21;85.56;101936.28;5054677;28;20053;-55
2023/04/10 01:06:29;;;;;;;15.10;11.35;;;;;;;7.30;85.15;101928.28;5055491;28;20036;-56
2023/04/10 01:09:16;;;;;;;13.68;10.73;;;;;;;7.27;85.29;101927.19;5055092;28;20037;-56
2023/04/10 01:11:55;;;;;;;13.48;11.13;;;;;;;7.31;84.53;101929.16;5055240;28;20472;-56
2023/04/10 01:14:30;;;;;;;14.85;11.85;;;;;;;7.30;84.71;101919.72;5054999;28;20021;-56
2023/04/10 01:17:02;;;;;;;13.43;11.00;;;;;;;7.31;84.25;101922.34;5054704;28;20419;-55
2023/04/10 01:19:59;;;;;;;12.93;10.93;;;;;;;7.36;83.61;101918.38;5054959;28;20102;-56
2023/04/10 01:22:31;;;;;;;13.83;11.40;;;;;;;7.33;84.06;101912.19;5054987;28;20545;-56
2023/04/10 01:25:15;;;;;;;12.52;11.15;;;;;;;7.37;83.62;101919.25;5055128;28;20294;-56
2023/04/10 01:28:10;;;;;;;12.57;10.75;;;;;;;7.38;83.24;101927.03;5055225;28;20141;-56
2023/04/10 01:30:36;;;;;;;12.85;10.82;;;;;;;7.43;82.76;101913.63;5051177;28;20049;-56
2023/04/10 01:33:04;;;;;;;13.93;10.88;;;;;;;7.45;82.73;101910.38;5054475;28;20024;-57
2023/04/10 01:35:32;;;;;;;14.77;11.30;;;;;;;7.36;82.93;101909.78;5054551;28;20393;-56
2023/04/10 01:37:59;;;;;;;;;;;;;;;7.43;83.25;101906.81;5054858;28;20029;-56
2023/04/10 01:40:26;;;;;;;13.15;10.38;;;;;;;7.35;82.91;101906.34;5054472;28;19917;-56
2023/04/10 01:42:54;;;;;;;13.27;10.32;;;;;;;7.27;84.05;101911.81;5054839;28;20074;-56
2023/04/10 01:45:27;;;;;;;13.95;10.88;;;;;;;7.18;84.68;101900.22;5053889;28;20024;-54
2023/04/10 01:47:54;;;;;;;13.70;10.52;;;;;;;7.18;84.09;101897.66;5054803;28;20028;-56
2023/04/10 01:50:24;;;;;;;14.37;11.47;;;;;;;7.12;84.20;101897.28;5054426;28;20033;-56
2023/04/10 01:52:51;;;;;;;12.15;10.85;;;;;;;7.08;85.15;101893.63;5054376;28;20275;-56
2023/04/10 01:55:19;;;;;;;16.10;11.63;;;;;;;6.97;85.68;101892.13;5054148;28;20380;-56
2023/04/10 01:57:47;;;;;;;15.40;12.70;;;;;;;6.92;85.86;101884.13;5054122;28;20032;-56
2023/04/10 02:00:13;;;;;;;16.77;12.43;;;;;;;6.88;86.18;101884.75;5054390;28;20025;-56
2023/04/10 02:02:39;;;;;;;15.88;12.38;;;;;;;6.81;86.51;101876.59;5054093;28;20021;-56
2023/04/10 02:05:05;;;;;;;15.07;12.15;;;;;;;6.81;86.82;101868.91;5053844;28;20048;-56
2023/04/10 02:07:37;;;;;;;14.57;12.15;;;;;;;6.72;86.75;101871.78;5053864;28;20477;-55
2023/04/10 02:10:12;;;;;;;17.48;12.30;;;;;;;6.70;87.20;101871.69;5054343;28;20473;-56
2023/04/10 02:12:43;;;;;;;14.73;12.13;;;;;;;6.64;87.28;101862.75;5053417;28;20021;-56
2023/04/10 02:15:09;;;;;;;13.90;11.80;;;;;;;6.69;86.42;101866.47;5054184;28;20036;-56
2023/04/10 02:17:36;;;;;;;15.48;12.32;;;;;;;6.66;87.46;101850.91;5053895;28;20025;-56
2023/04/10 02:20:03;;;;;;;14.70;12.02;;;;;;;6.65;87.73;101865.41;5053540;28;20032;-56
2023/04/10 02:22:29;;;;;;;15.52;11.65;;;;;;;6.65;87.71;101857.72;5053460;28;20376;-56
2023/04/10 02:24:56;;;;;;;17.55;12.60;;;;;;;6.65;87.34;101856.81;5054022;28;20104;-56
2023/04/10 02:27:33;;;;;;;15.32;12.38;;;;;;;6.63;87.45;101843.03;5052962;28;20032;-56
2023/04/10 02:29:59;;;;;;;14.95;11.95;;;;;;;6.61;87.94;101849.72;5053802;28;20036;-55
2023/04/10 02:32:26;;;;;;;15.40;12.00;;;;;;;6.54;88.41;101851.03;5053605;28;20028;-56
2023/04/10 02:34:51;;;;;;;16.15;12.50;;;;;;;6.55;88.78;101855.38;5053393;28;20025;-56
2023/04/10 02:37:16;;;;;;;15.15;12.48;;;;;;;6.51;88.40;101849.16;5053231;28;20044;-56
2023/04/10 02:39:42;;;;;;;15.10;12.35;;;;;;;6.49;88.35;101850.72;5053725;28;20031;-56
2023/04/10 02:42:07;;;;;;;15.13;12.27;;;;;;;6.49;88.65;101850.72;5052842;28;20492;-56
2023/04/10 02:44:32;;;;;;;16.50;12.95;;;;;;;6.50;88.48;101852.50;5053302;28;20027;-56
2023/04/10 02:46:58;;;;;;;14.05;12.35;;;;;;;6.37;89.81;101849.97;5052910;28;20023;-54
2023/04/10 02:49:23;;;;;;;15.93;12.95;;;;;;;6.40;89.33;101852.72;5053013;28;20029;-56
2023/04/10 02:51:48;;;;;;;15.63;12.25;;;;;;;6.44;88.91;101849.56;5053553;28;20025;-55
2023/04/10 02:54:14;;;;;;;18.95;13.35;;;;;;;6.40;89.49;101856.19;5052849;28;20025;-56
2023/04/10 02:56:39;;;;;;;14.73;11.68;;;;;;;6.40;89.19;101845.94;5053041;28;20056;-56
2023/04/10 02:59:04;;;;;;;16.00;12.23;;;;;;;6.41;89.29;101836.59;5053586;28;20028;-56
2023/04/10 03:01:30;;;;;;;16.92;11.98;;;;;;;6.34;89.22;101845.56;5052616;28;20469;-56
2023/04/10 03:03:56;;;;;;;17.02;13.02;;;;;;;6.34;89.33;101839.53;5052936;28;20102;-56
2023/04/10 03:06:25;;;;;;;24.80;13.13;;;;;;;6.30;89.64;101841.03;5053037;28;20360;-54
2023/04/10 03:08:50;;;;;;;16.23;12.15;;;;;;;6.34;89.35;101850.69;5052650;28;20025;-56
2023/04/10 03:11:15;;;;;;;16.30;12.98;;;;;;;6.31;89.09;101850.47;5052912;28;20494;-56
2023/04/10 03:13:41;;;;;;;15.15;12.82;;;;;;;6.29;89.48;101849.50;5053426;28;20494;-56
2023/04/10 03:16:06;;;;;;;17.15;13.15;;;;;;;6.23;89.38;101849.97;5052608;28;20521;-56
2023/04/10 03:18:33;;;;;;;16.90;12.70;;;;;;;6.25;89.56;101856.09;5052464;28;20025;-56
2023/04/10 03:20:58;;;;;;;15.43;13.32;;;;;;;6.24;89.34;101858.56;5053071;28;20033;-56
2023/04/10 03:23:24;;;;;;;15.07;13.00;;;;;;;6.19;89.91;101859.94;5052177;28;20384;-56
2023/04/10 03:25:53;;;;;;;16.08;13.10;;;;;;;6.09;90.64;101858.47;5052780;28;20059;-56
2023/04/10 03:28:21;;;;;;;17.02;13.63;;;;;;;6.04;90.88;101853.06;5052584;28;20014;-56
2023/04/10 03:30:48;;;;;;;16.73;13.15;;;;;;;5.95;91.23;101847.28;5052472;28;20070;-56
2023/04/10 03:33:14;;;;;;;15.95;13.50;;;;;;;5.91;91.65;101858.13;5052647;28;20029;-56
2023/04/10 03:35:39;;;;;;;16.48;12.70;;;;;;;5.88;91.41;101853.69;5052575;28;20028;-56
2023/04/10 03:38:05;;;;;;;15.63;12.60;;;;;;;5.87;91.89;101845.94;5052296;28;20129;-56
2023/04/10 03:40:32;;;;;;;15.85;13.20;;;;;;;5.77;92.28;101840.22;5052322;28;20029;-56
2023/04/10 03:42:58;;;;;;;15.32;12.02;;;;;;;5.71;92.40;101834.69;5052994;28;20043;-57
2023/04/10 03:45:23;;;;;;;17.85;14.38;;;;;;;5.72;92.35;101833.91;5051798;28;20020;-56
2023/04/10 03:47:48;;;;;;;16.40;13.98;;;;;;;5.75;92.64;101835.78;5052639;28;20060;-56
2023/04/10 03:50:14;;;;;;;15.60;13.35;;;;;;;5.74;92.61;101834.00;5052267;28;20032;-56
2023/04/10 03:52:40;;;;;;;16.63;13.70;;;;;;;5.72;92.58;101825.34;5052094;28;20017;-56
2023/04/10 03:55:05;;;;;;;20.15;14.40;;;;;;;5.73;93.34;101822.91;5054718;28;20028;-56
2023/04/10 03:57:31;;;;;;;17.80;14.63;;;;;;;5.70;93.50;101824.38;5056104;28;20108;-55
2023/04/10 03:59:56;;;;;;;18.80;15.43;;;;;;;5.63;93.60;101823.09;5056446;28;20364;-56
2023/04/10 04:02:21;;;;;;;16.73;14.60;;;;;;;5.54;94.20;101825.03;5056390;28;20064;-56
2023/04/10 04:04:47;;;;;;;17.00;14.80;;;;;;;5.51;94.08;101820.59;5056138;28;20060;-56
2023/04/10 04:07:12;;;;;;;18.08;15.55;;;;;;;5.45;94.57;101815.09;5056260;28;20119;-56
2023/04/10 04:09:38;;;;;;;18.23;15.07;;;;;;;5.44;94.84;101813.31;5056465;28;20045;-56
2023/04/10 04:12:03;;;;;;;18.70;15.32;;;;;;;5.41;94.92;101808.00;5055890;28;20479;-56
2023/04/10 04:14:28;;;;;;;18.20;15.60;;;;;;;5.40;94.96;101811.34;5056141;28;20465;-56
2023/04/10 04:16:54;;;;;;;16.88;15.07;;;;;;;5.36;94.78;101809.34;5056585;28;20025;-56
2023/04/10 04:19:19;;;;;;;21.83;16.52;;;;;;;5.38;94.81;101807.81;5055448;28;20040;-56
2023/04/10 04:21:44;;;;;;;19.08;16.25;;;;;;;5.39;95.12;101804.47;5056040;28;20043;-55
2023/04/10 04:24:10;;;;;;;17.73;15.77;;;;;;;5.41;94.51;101802.88;5056449;28;20029;-56
2023/04/10 04:26:35;;;;;;;19.08;15.63;;;;;;;5.34;95.36;101800.72;5055567;28;20109;-56
2023/04/10 04:29:00;;;;;;;18.45;14.93;;;;;;;5.34;94.40;101795.59;5055937;28;20025;-56
2023/04/10 04:31:31;;;;;;;18.13;15.45;;;;;;;5.32;95.54;101792.03;5055887;28;20041;-56
2023/04/10 04:33:56;;;;;;;23.52;15.30;;;;;;;5.31;95.66;101796.28;5055582;28;20033;-56
2023/04/10 04:36:22;;;;;;;19.20;15.93;;;;;;;5.24;95.75;101800.13;5055481;28;20607;-54
2023/04/10 04:38:47;;;;;;;17.33;15.02;;;;;;;5.30;95.04;101793.63;5056179;28;20040;-54
2023/04/10 04:41:12;;;;;;;18.17;14.65;;;;;;;5.31;95.15;101792.81;5055463;28;20040;-56
2023/04/10 04:43:38;;;;;;;18.42;14.95;;;;;;;5.35;94.96;101792.28;5055404;28;20032;-56
2023/04/10 04:46:03;;;;;;;20.50;15.98;;;;;;;5.41;94.68;101797.75;5055913;28;20098;-56
2023/04/10 04:48:28;;;;;;;18.15;15.20;;;;;;;5.41;94.10;101788.44;5054975;28;20025;-56
2023/04/10 04:50:54;;;;;;;17.08;15.07;;;;;;;5.43;93.90;101776.63;5055654;28;20476;-56
2023/04/10 04:53:19;;;;;;;17.98;14.70;;;;;;;5.43;93.85;101781.75;5055415;28;20024;-56
2023/04/10 04:55:45;;;;;;;17.92;14.57;;;;;;;5.42;93.99;101773.97;5055099;28;20642;-54
2023/04/10 04:58:10;;;;;;;17.83;14.18;;;;;;;5.43;93.72;101778.31;5055750;28;20029;-56
2023/04/10 05:00:35;;;;;;;17.30;15.02;;;;;;;5.42;93.61;101784.19;5054733;28;20400;-55
2023/04/10 05:03:00;;;;;;;20.00;15.13;;;;;;;5.39;93.33;101781.47;5055286;28;20045;-56
2023/04/10 05:05:26;;;;;;;17.45;14.32;;;;;;;5.40;93.23;101775.56;5054816;28;20100;-54
2023/04/10 05:07:51;;;;;;;18.65;15.23;;;;;;;5.41;93.29;101772.19;5054909;28;20025;-56
2023/04/10 05:10:16;;;;;;;20.77;17.30;;;;;;;5.42;92.80;101768.88;5055146;28;20029;-56
2023/04/10 05:12:42;;;;;;;19.10;16.40;;;;;;;5.38;93.05;101766.91;5055519;28;20383;-56
2023/04/10 05:15:08;;;;;;;18.02;15.10;;;;;;;5.38;93.28;101765.22;5054813;28;20541;-56
2023/04/10 05:17:33;;;;;;;19.98;15.27;;;;;;;5.41;92.56;101752.66;5054714;28;20032;-56
2023/04/10 05:19:58;;;;;;;17.15;14.65;;;;;;;5.46;92.14;101755.50;5055246;28;20025;-55
2023/04/10 05:22:24;;;;;;;16.65;14.30;;;;;;;5.49;92.17;101752.25;5054690;28;20070;-56
2023/04/10 05:24:49;;;;;;;16.52;14.50;;;;;;;5.53;91.72;101755.13;5055116;28;20051;-56
2023/04/10 05:27:16;;;;;;;15.35;13.63;;;;;;;5.55;92.21;101756.09;5055245;28;20043;-56
2023/04/10 05:29:41;;;;;;;18.33;13.40;;;;;;;5.63;91.60;101754.03;5054589;28;20048;-56
2023/04/10 05:32:06;;;;;;;13.95;12.45;;;;;;;5.65;91.98;101756.69;5055054;28;20060;-56
2023/04/10 05:34:31;;;;;;;15.05;13.02;;;;;;;5.69;90.90;101753.53;5054701;28;20033;-56
2023/04/10 05:36:57;;;;;;;15.40;12.93;;;;;;;5.74;90.87;101757.28;5054181;28;20090;-56
2023/04/10 05:39:22;;;;;;;16.88;12.95;;;;;;;5.80;90.97;101751.66;5054587;28;20037;-56
2023/04/10 05:41:47;;;;;;;16.02;13.88;;;;;;;5.83;90.60;101757.84;5055175;28;20111;-56
2023/04/10 05:44:12;;;;;;;15.57;13.38;;;;;;;5.88;89.92;101756.47;5054280;28;20020;-56
2023/04/10 05:46:38;;;;;;;14.77;12.18;;;;;;;5.93;89.89;101756.78;5054183;28;20017;-56
2023/04/10 05:49:03;;;;;;;15.18;13.13;;;;;;;5.98;89.77;101752.88;5054553;28;20025;-56
2023/04/10 05:51:28;;;;;;;15.05;12.77;;;;;;;6.03;89.24;101748.91;5053650;28;20047;-55
2023/04/10 05:53:54;;;;;;;16.00;12.75;;;;;;;6.09;88.52;101754.44;5054626;28;20021;-56
2023/04/10 05:56:19;;;;;;;16.13;12.90;;;;;;;6.16;87.96;101755.69;5054325;28;20052;-56
2023/04/10 05:58:45;;;;;;;15.73;13.18;;;;;;;6.20;88.85;101762.78;5053916;28;20465;-56
2023/04/10 06:01:12;;;;;;;15.40;12.27;;;;;;;6.28;88.21;101762.38;5054377;28;20111;-56
2023/04/10 06:03:37;;;;;;;17.85;13.13;;;;;;;6.35;88.17;101759.38;5053989;28;20123;-56
2023/04/10 06:06:03;;;;;;;15.05;13.25;;;;;;;6.44;87.29;101765.06;5053614;28;20550;-56
2023/04/10 06:08:28;;;;;;;15.32;12.75;;;;;;;6.52;87.01;101763.88;5054066;28;20032;-56
2023/04/10 06:10:53;;;;;;;14.70;12.50;;;;;;;6.61;86.16;101767.75;5053857;28;20025;-56
2023/04/10 06:13:19;;;;;;;15.18;12.25;;;;;;;6.69;85.96;101762.31;5053795;28;20021;-56
2023/04/10 06:15:44;;;;;;;14.25;12.30;;;;;;;6.76;85.46;101758.44;5054141;28;20013;-55
2023/04/10 06:18:10;;;;;;;19.42;12.73;;;;;;;6.87;85.16;101757.41;5052844;28;20055;-56
2023/04/10 06:20:35;;;;;;;14.82;12.63;;;;;;;6.98;84.72;101754.59;5053434;28;20108;-56
2023/04/10 06:23:01;;;;;;;14.38;12.55;;;;;;;7.06;84.10;101751.69;5054207;28;20029;-56
2023/04/10 06:25:27;;;;;;;15.70;12.27;;;;;;;7.13;83.16;101745.25;5053284;28;20090;-56
2023/04/10 06:27:52;;;;;;;24.20;19.42;;;;;;;7.19;82.51;101745.59;5053587;28;20053;-56
2023/04/10 06:30:17;;;;;;;17.48;15.57;;;;;;;7.28;82.34;101744.34;5053756;28;20519;-56
2023/04/10 06:32:43;;;;;;;15.18;12.98;;;;;;;7.33;81.78;101733.53;5053239;28;20472;-56
2023/04/10 06:35:09;;;;;;;17.38;15.57;;;;;;;7.40;81.36;101732.25;5053487;28;20025;-56
2023/04/10 06:37:34;;;;;;;14.23;12.73;;;;;;;7.47;80.89;101729.22;5053651;28;20025;-56
2023/04/10 06:40:08;;;;;;;14.18;12.25;;;;;;;7.50;80.91;101731.06;5053287;28;20361;-56
2023/04/10 06:42:34;;;;;;;12.95;11.50;;;;;;;7.60;80.29;101719.66;5053304;28;20029;-55
2023/04/10 06:44:59;;;;;;;13.30;11.55;;;;;;;7.66;79.87;101712.28;5053600;28;20095;-55
2023/04/10 06:47:25;;;;;;;14.38;11.85;;;;;;;7.73;79.41;101719.50;5052845;28;20033;-56
2023/04/10 06:49:50;;;;;;;13.23;11.30;;;;;;;7.81;78.58;101707.09;5053208;28;20021;-56
2023/04/10 06:52:16;;;;;;;13.30;11.55;;;;;;;7.89;78.29;101701.59;5053505;28;20036;-55
2023/04/10 06:54:41;;;;;;;14.85;12.07;;;;;;;7.93;77.54;101688.91;5052886;28;20098;-56
2023/04/10 06:57:06;;;;;;;12.98;11.07;;;;;;;8.00;77.38;101689.31;5053302;28;20021;-56
2023/04/10 06:59:33;;;;;;;13.80;11.10;;;;;;;8.04;76.05;101685.25;5053143;28;20029;-56
2023/04/10 07:01:59;;;;;;;13.67;11.23;;;;;;;8.16;77.94;101685.00;5052540;28;20029;-56
2023/04/10 07:04:24;;;;;;;16.75;12.13;;;;;;;8.23;76.71;101681.97;5052780;28;20396;-56
2023/04/10 07:06:49;;;;;;;12.77;11.27;;;;;;;8.33;76.59;101673.06;5053027;28;20024;-56
2023/04/10 07:09:15;;;;;;;13.98;11.07;;;;;;;8.40;75.43;101680.28;5052454;28;20040;-56
2023/04/10 07:11:40;;;;;;;13.60;11.27;;;;;;;8.44;75.18;101671.91;5052949;28;20045;-55
2023/04/10 07:14:05;;;;;;;13.70;10.88;;;;;;;8.47;75.25;101669.56;5053223;28;20021;-56
2023/04/10 07:16:31;;;;;;;14.88;11.50;;;;;;;8.57;75.43;101664.09;5051995;28;20035;-56
2023/04/10 07:18:56;;;;;;;13.40;11.45;;;;;;;8.65;74.91;101663.59;5052947;28;20032;-54
2023/04/10 07:21:21;;;;;;;14.85;11.30;;;;;;;8.70;73.85;101655.31;5052300;28;20036;-53
2023/04/10 07:23:47;;;;;;;13.65;11.10;;;;;;;8.73;73.54;101652.88;5052857;28;20051;-55
2023/04/10 07:26:13;;;;;;;15.27;11.45;;;;;;;8.77;72.99;101646.22;5053189;28;20078;-56
2023/04/10 07:28:38;;;;;;;13.95;10.98;;;;;;;8.82;73.34;101647.31;5052041;28;20029;-56
2023/04/10 07:31:04;;;;;;;14.93;11.90;;;;;;;8.86;71.87;101638.97;5052632;28;20021;-55
2023/04/10 07:33:30;;;;;;;15.10;11.85;;;;;;;8.94;72.57;101641.91;5052555;28;20388;-54
2023/04/10 07:35:55;;;;;;;13.48;11.02;;;;;;;9.00;71.58;101636.16;5052317;28;20461;-53
2023/04/10 07:38:23;;;;;;;14.48;11.00;;;;;;;9.08;69.86;101632.28;5052485;28;20029;-55
2023/04/10 07:40:48;;;;;;;14.38;11.68;;;;;;;9.19;70.93;101633.69;5052922;28;20017;-55
2023/04/10 07:43:13;;;;;;;13.82;10.93;;;;;;;9.27;70.02;101625.44;5052395;28;20029;-54
2023/04/10 07:45:39;;;;;;;13.63;10.82;;;;;;;9.35;68.90;101619.00;5052139;28;20079;-56
2023/04/10 07:48:05;;;;;;;13.63;10.95;;;;;;;9.41;68.09;101616.69;5052751;28;20092;-56
2023/04/10 07:50:30;;;;;;;13.43;10.73;;;;;;;9.50;68.27;101617.13;5051793;28;20125;-56
2023/04/10 07:52:56;;;;;;;13.00;10.38;;;;;;;9.64;67.52;101604.88;5052596;28;20057;-56
2023/04/10 07:55:21;;;;;;;11.90;10.23;;;;;;;9.79;67.26;101599.56;5052434;28;20021;-56
2023/04/10 07:57:46;;;;;;;12.35;10.13;;;;;;;9.93;66.12;101602.75;5052081;28;20362;-56
2023/04/10 08:00:12;;;;;;;11.63;10.38;;;;;;;10.06;65.21;101596.44;5052208;28;20029;-56
2023/04/10 08:02:39;;;;;;;12.80;9.93;;;;;;;10.37;65.00;101590.94;5052423;28;20060;-57
2023/04/10 08:05:05;;;;;;;12.40;10.53;;;;;;;10.61;63.82;101584.16;5051968;28;20068;-57
2023/04/10 08:07:30;;;;;;;11.57;9.85;;;;;;;10.80;62.13;101578.94;5052236;28;20036;-56
2023/04/10 08:09:55;;;;;;;11.60;10.05;;;;;;;11.01;62.17;101581.53;5052690;28;20021;-56
2023/04/10 08:12:21;;;;;;;10.80;9.48;;;;;;;11.04;60.75;101591.06;5051602;28;20057;-56
2023/04/10 08:14:46;;;;;;;11.45;9.45;;;;;;;11.09;60.14;101586.06;5052329;28;20021;-55
2023/04/10 08:17:13;;;;;;;12.27;10.00;;;;;;;11.16;60.31;101580.34;5052416;28;20040;-56
2023/04/10 08:19:42;;;;;;;10.65;9.13;;;;;;;11.18;59.76;101579.59;5051578;28;20025;-56
2023/04/10 08:22:07;;;;;;;13.73;10.32;;;;;;;11.19;59.87;101570.13;5052387;28;20066;-56
2023/04/10 08:24:32;;;;;;;11.30;9.15;;;;;;;11.25;59.26;101579.84;5051876;28;20025;-59
2023/04/10 08:26:58;;;;;;;10.00;8.85;;;;;;;11.29;59.38;101579.13;5052220;28;20503;-57
2023/04/10 08:29:23;;;;;;;10.43;8.68;;;;;;;11.34;58.86;101570.72;5051958;28;20464;-56
2023/04/10 08:31:48;;;;;;;10.40;9.02;;;;;;;11.34;57.91;101575.88;5051829;28;20108;-56
2023/04/10 08:34:14;;;;;;;11.02;9.25;;;;;;;11.45;59.19;101573.72;5052223;28;20024;-55
2023/04/10 08:36:39;;;;;;;9.65;8.65;;;;;;;11.56;58.56;101568.09;5052055;28;20029;-56
2023/04/10 08:39:05;;;;;;;12.98;11.57;;;;;;;11.66;57.92;101567.59;5051841;28;20499;-56
2023/04/10 08:41:30;;;;;;;10.75;9.25;;;;;;;11.82;58.19;101562.16;5054321;28;20128;-56
2023/04/10 08:43:56;;;;;;;10.68;9.52;;;;;;;11.98;58.18;101561.03;5055939;28;20052;-56
2023/04/10 08:46:25;;;;;;;10.30;8.60;;;;;;;11.89;57.07;101550.38;5054996;28;20066;-56
2023/04/10 08:49:04;;;;;;;9.88;8.80;;;;;;;11.93;58.91;101548.75;5055545;28;20453;-56
2023/04/10 08:51:44;;;;;;;9.68;8.23;;;;;;;12.04;59.09;101549.16;5055632;28;20025;-56
2023/04/10 08:54:24;;;;;;;11.13;9.20;;;;;;;12.10;58.87;101555.44;5054940;28;20035;-56
2023/04/10 08:56:50;;;;;;;9.93;8.55;;;;;;;12.08;57.91;101551.91;5055696;28;20476;-56
2023/04/10 08:59:16;;;;;;;10.15;8.30;;;;;;;12.16;58.47;101555.66;5055509;28;20049;-56
2023/04/10 09:01:41;;;;;;;10.82;8.35;;;;;;;12.21;58.46;101544.56;5054976;28;20502;-56
2023/04/10 09:04:06;;;;;;;10.93;9.10;;;;;;;12.23;58.89;101550.69;5055409;28;20045;-56
2023/04/10 09:06:32;;;;;;;11.68;9.65;;;;;;;12.17;58.00;101552.25;5055200;28;20531;-55
2023/04/10 09:08:58;;;;;;;10.85;8.98;;;;;;;12.25;57.71;101536.09;5054736;28;20029;-56
2023/04/10 09:11:59;;;;;;;10.00;8.95;;;;;;;12.19;58.64;101547.97;5055262;28;20017;-56
2023/04/10 09:14:34;;;;;;;9.73;8.40;;;;;;;12.31;59.07;101546.66;5054739;28;20037;-56
2023/04/10 09:17:22;;;;;;;11.23;8.50;;;;;;;12.42;58.78;101540.13;5055199;28;20052;-56
2023/04/10 09:19:51;;;;;;;11.07;8.30;;;;;;;12.36;58.91;101534.75;5055224;28;20021;-56
2023/04/10 09:22:17;;;;;;;9.35;7.82;;;;;;;12.35;57.24;101520.06;5054373;28;20041;-56
2023/04/10 09:24:44;;;;;;;10.50;8.15;;;;;;;12.38;58.01;101527.91;5055324;28;20033;-56
2023/04/10 09:27:26;;;;;;;10.43;8.80;;;;;;;12.37;58.18;101528.75;5055257;28;20144;-57
2023/04/10 09:29:51;;;;;;;8.88;7.97;;;;;;;12.52;57.96;101515.44;5054447;28;20021;-56
2023/04/10 09:32:38;;;;;;;11.15;8.90;;;;;;;12.62;58.85;101512.31;5054797;28;20032;-56
2023/04/10 09:35:05;;;;;;;9.60;8.55;;;;;;;12.60;57.26;101506.25;5054696;28;20032;-57
2023/04/10 09:37:35;;;;;;;8.75;7.85;;;;;;;12.62;57.81;101506.28;5054620;28;20032;-56
2023/04/10 09:40:01;;;;;;;9.52;8.30;;;;;;;12.65;57.66;101502.09;5054861;28;20484;-56
2023/04/10 09:42:35;;;;;;;9.50;8.32;;;;;;;12.67;57.61;101491.78;5054034;28;20040;-56
2023/04/10 09:45:01;;;;;;;9.00;8.05;;;;;;;12.77;57.45;101477.41;5054766;28;20025;-57
2023/04/10 09:47:27;;;;;;;9.68;7.85;;;;;;;12.76;57.01;101466.22;5054664;28;20021;-55
2023/04/10 09:49:54;;;;;;;9.20;7.47;;;;;;;12.80;57.03;101465.47;5054318;28;20457;-56
2023/04/10 09:52:29;;;;;;;9.60;8.18;;;;;;;12.77;57.14;101455.03;5052968;28;20017;-55
2023/04/10 09:54:57;;;;;;;9.63;8.30;;;;;;;12.76;58.39;101466.22;5054605;28;20043;-56
2023/04/10 09:57:25;;;;;;;9.60;8.07;;;;;;;12.77;58.57;101460.22;5053406;28;20465;-56
2023/04/10 09:59:54;;;;;;;10.77;8.52;;;;;;;12.93;58.26;101458.09;5054806;28;20055;-56
2023/04/10 10:02:22;;;;;;;10.45;8.45;;;;;;;12.90;57.97;101463.16;5054193;28;20060;-53
2023/04/10 10:04:48;;;;;;;9.85;7.75;;;;;;;12.97;57.34;101455.63;5053595;28;20047;-54
2023/04/10 10:07:16;;;;;;;9.60;8.40;;;;;;;13.01;56.89;101451.41;5054371;28;20025;-56
2023/04/10 10:09:42;;;;;;;9.00;8.00;;;;;;;13.14;56.42;101445.78;5054257;28;20559;-56
2023/04/10 10:12:10;;;;;;;10.43;7.53;;;;;;;13.32;56.93;101452.28;5053799;28;20025;-56
2023/04/10 10:14:46;;;;;;;8.77;7.68;;;;;;;13.43;56.50;101448.34;5053936;28;20820;-56
2023/04/10 10:17:16;;;;;;;8.45;7.55;;;;;;;13.53;55.90;101453.75;5053698;28;20473;-56
2023/04/10 10:19:55;;;;;;;11.15;7.30;;;;;;;13.85;56.02;101438.19;5054117;28;20025;-56
2023/04/10 10:22:23;;;;;;;9.93;7.60;;;;;;;13.86;54.91;101424.41;5053714;28;20028;-56
2023/04/10 10:24:49;;;;;;;9.55;7.88;;;;;;;13.98;54.07;101424.69;5053732;28;20021;-56
2023/04/10 10:27:16;;;;;;;9.50;6.95;;;;;;;14.15;54.12;101418.22;5053998;28;20114;-56
2023/04/10 10:29:43;;;;;;;10.13;7.00;;;;;;;14.34;53.08;101408.28;5054024;28;20032;-56
2023/04/10 10:32:10;;;;;;;7.63;6.45;;;;;;;14.39;52.28;101406.66;5053427;28;20024;-55
2023/04/10 10:34:36;;;;;;;7.60;6.70;;;;;;;14.68;51.65;101408.19;5053432;28;20060;-55
2023/04/10 10:37:03;;;;;;;7.68;6.00;;;;;;;14.85;51.05;101403.34;5053633;28;20357;-56
2023/04/10 10:39:37;;;;;;;7.57;5.38;;;;;;;15.04;50.20;101400.31;5052909;28;20025;-55
2023/04/10 10:42:17;;;;;;;8.18;5.53;;;;;;;15.01;50.24;101400.22;5053582;28;20392;-56
2023/04/10 10:45:09;;;;;;;7.32;5.78;;;;;;;15.03;50.13;101390.75;5053857;28;20040;-56
2023/04/10 10:47:40;;;;;;;6.35;5.07;;;;;;;15.06;49.78;101389.94;5052707;28;20485;-56
2023/04/10 10:50:06;;;;;;;10.38;5.40;;;;;;;15.09;48.58;101382.22;5053822;28;20021;-56
2023/04/10 10:52:39;;;;;;;6.65;4.80;;;;;;;15.14;48.75;101378.88;5052673;28;20381;-56
2023/04/10 10:55:23;;;;;;;6.10;4.60;;;;;;;15.18;48.87;101373.72;5053359;28;20053;-56
2023/04/10 10:57:54;;;;;;;7.45;5.60;;;;;;;15.21;48.31;101363.38;5053587;28;20116;-56
2023/04/10 11:00:21;;;;;;;6.55;5.18;;;;;;;15.36;47.91;101353.28;5052420;28;20028;-56
2023/04/10 11:03:07;;;;;;;5.93;4.60;;;;;;;15.51;48.34;101362.22;5052956;28;20043;-54
2023/04/10 11:05:56;;;;;;;5.82;4.95;;;;;;;15.61;47.73;101345.94;5053016;28;20029;-56
2023/04/10 11:08:41;;;;;;;6.25;4.97;;;;;;;15.75;47.64;101347.03;5052358;28;20043;-56
2023/04/10 11:11:11;;;;;;;6.50;4.82;;;;;;;15.90;47.26;101351.63;5053330;28;20041;-56
2023/04/10 11:13:39;;;;;;;6.93;4.40;;;;;;;16.10;45.69;101348.44;5052476;28;20032;-54
2023/04/10 11:16:06;;;;;;;5.63;4.03;;;;;;;16.40;46.15;101342.81;5052877;28;20025;-55
2023/04/10 11:18:44;;;;;;;6.20;4.55;;;;;;;16.84;45.94;101328.63;5052753;28;20105;-56
2023/04/10 11:21:12;;;;;;;6.68;4.60;;;;;;;16.95;44.91;101333.97;5052412;28;20082;-55